Bowling Green, South Carolina
Current Conditions -  °F | °C
As of 7:54 AM on Saturday 20 Dec 2014 (Local Time) from KAKH Reporting Station
Light Rain Light Rain  
Wind Chill: 35°   Ceiling: 4100
Heat Index: 40°   Visibility: 8mi
Dew Point: 34°   Wind: 7mph
Humidity: 79%   Direction: 30°NNE
Pressure: 30.23"   Gusts: NA
Location:  35.15°N, 81.21°W
Report Text: KAKH 201254Z AUTO 03006KT 8SM -RA OVC041 04/01 A3023 RMK AO2 SLP239 P0001 T00440011
Loading
Personal Weather Stations






























Interactive Weather Map New forecast layout! Learn more

10-Day Weather Forecast

Advertisements
Track Severe Weather on mobile